sensor_id;sensor_type;location;lat;lon;timestamp;temperature;humidity
55369;DHT22;41247;49.736;8.752;2022-08-19T00:03:05;18.40;99.90
55369;DHT22;41247;49.736;8.752;2022-08-19T00:06:46;18.50;99.90
55369;DHT22;41247;49.736;8.752;2022-08-19T00:10:27;18.50;99.90
55369;DHT22;41247;49.736;8.752;2022-08-19T00:14:10;18.40;99.90
55369;DHT22;41247;49.736;8.752;2022-08-19T00:17:52;18.40;99.90
55369;DHT22;41247;49.736;8.752;2022-08-19T00:21:34;18.40;99.90
55369;DHT22;41247;49.736;8.752;2022-08-19T00:25:15;18.40;99.90
55369;DHT22;41247;49.736;8.752;2022-08-19T00:28:56;18.50;99.90
55369;DHT22;41247;49.736;8.752;2022-08-19T00:32:37;18.40;99.90
55369;DHT22;41247;49.736;8.752;2022-08-19T00:36:18;18.40;99.90
55369;DHT22;41247;49.736;8.752;2022-08-19T00:39:59;18.40;99.90
55369;DHT22;41247;49.736;8.752;2022-08-19T00:43:40;18.30;99.90
55369;DHT22;41247;49.736;8.752;2022-08-19T00:47:21;18.30;99.90
55369;DHT22;41247;49.736;8.752;2022-08-19T00:51:02;18.30;99.90
55369;DHT22;41247;49.736;8.752;2022-08-19T00:54:47;18.30;99.90
55369;DHT22;41247;49.736;8.752;2022-08-19T00:58:31;18.20;99.90
55369;DHT22;41247;49.736;8.752;2022-08-19T01:02:14;18.20;99.90
55369;DHT22;41247;49.736;8.752;2022-08-19T01:05:56;18.20;99.90
55369;DHT22;41247;49.736;8.752;2022-08-19T01:09:37;18.20;99.90
55369;DHT22;41247;49.736;8.752;2022-08-19T01:13:21;18.20;99.90
55369;DHT22;41247;49.736;8.752;2022-08-19T01:17:05;18.10;99.90
55369;DHT22;41247;49.736;8.752;2022-08-19T01:20:48;18.20;99.90
55369;DHT22;41247;49.736;8.752;2022-08-19T01:24:28;18.10;99.90
55369;DHT22;41247;49.736;8.752;2022-08-19T01:28:17;18.20;99.90
55369;DHT22;41247;49.736;8.752;2022-08-19T01:32:00;18.20;99.90
55369;DHT22;41247;49.736;8.752;2022-08-19T01:35:42;18.20;99.90
55369;DHT22;41247;49.736;8.752;2022-08-19T01:39:24;18.20;99.90
55369;DHT22;41247;49.736;8.752;2022-08-19T01:43:05;18.20;99.90
55369;DHT22;41247;49.736;8.752;2022-08-19T01:46:48;18.20;99.90
55369;DHT22;41247;49.736;8.752;2022-08-19T01:50:31;18.20;99.90
55369;DHT22;41247;49.736;8.752;2022-08-19T01:54:15;18.10;99.90
55369;DHT22;41247;49.736;8.752;2022-08-19T01:57:59;18.10;99.90
55369;DHT22;41247;49.736;8.752;2022-08-19T02:01:40;18.00;99.90
55369;DHT22;41247;49.736;8.752;2022-08-19T02:05:21;18.00;99.90
55369;DHT22;41247;49.736;8.752;2022-08-19T02:09:05;18.00;99.90
55369;DHT22;41247;49.736;8.752;2022-08-19T02:12:47;18.00;99.90
55369;DHT22;41247;49.736;8.752;2022-08-19T02:16:28;18.00;99.90
55369;DHT22;41247;49.736;8.752;2022-08-19T02:20:09;18.00;99.90
55369;DHT22;41247;49.736;8.752;2022-08-19T02:23:51;18.10;99.90
55369;DHT22;41247;49.736;8.752;2022-08-19T02:27:31;18.10;99.90
55369;DHT22;41247;49.736;8.752;2022-08-19T02:31:16;18.20;99.90
55369;DHT22;41247;49.736;8.752;2022-08-19T02:34:57;18.20;99.90
55369;DHT22;41247;49.736;8.752;2022-08-19T02:38:39;18.20;99.90
55369;DHT22;41247;49.736;8.752;2022-08-19T02:42:19;18.20;99.90
55369;DHT22;41247;49.736;8.752;2022-08-19T02:46:00;18.20;99.90
55369;DHT22;41247;49.736;8.752;2022-08-19T02:49:41;18.10;99.90
55369;DHT22;41247;49.736;8.752;2022-08-19T02:53:26;18.10;99.90
55369;DHT22;41247;49.736;8.752;2022-08-19T02:57:08;18.00;99.90
55369;DHT22;41247;49.736;8.752;2022-08-19T03:00:53;17.90;99.90
55369;DHT22;41247;49.736;8.752;2022-08-19T03:04:35;17.90;99.90
55369;DHT22;41247;49.736;8.752;2022-08-19T03:08:15;17.80;99.90
55369;DHT22;41247;49.736;8.752;2022-08-19T03:11:56;17.80;99.90
55369;DHT22;41247;49.736;8.752;2022-08-19T03:15:40;17.80;99.90
55369;DHT22;41247;49.736;8.752;2022-08-19T03:19:21;17.70;99.90
55369;DHT22;41247;49.736;8.752;2022-08-19T03:23:02;17.60;99.90
55369;DHT22;41247;49.736;8.752;2022-08-19T03:26:46;17.60;99.90
55369;DHT22;41247;49.736;8.752;2022-08-19T03:30:31;17.50;99.90
55369;DHT22;41247;49.736;8.752;2022-08-19T03:34:14;17.50;99.90
55369;DHT22;41247;49.736;8.752;2022-08-19T03:38:06;17.50;99.90
55369;DHT22;41247;49.736;8.752;2022-08-19T03:41:47;17.50;99.90
55369;DHT22;41247;49.736;8.752;2022-08-19T03:45:29;17.60;99.90
55369;DHT22;41247;49.736;8.752;2022-08-19T03:49:09;17.60;99.90
55369;DHT22;41247;49.736;8.752;2022-08-19T03:52:51;17.60;99.90
55369;DHT22;41247;49.736;8.752;2022-08-19T03:56:33;17.50;99.90
55369;DHT22;41247;49.736;8.752;2022-08-19T04:00:15;17.50;99.90
55369;DHT22;41247;49.736;8.752;2022-08-19T04:03:57;17.50;99.90
55369;DHT22;41247;49.736;8.752;2022-08-19T04:07:38;17.40;99.90
55369;DHT22;41247;49.736;8.752;2022-08-19T04:11:25;17.40;99.90
55369;DHT22;41247;49.736;8.752;2022-08-19T04:15:11;17.40;99.90
55369;DHT22;41247;49.736;8.752;2022-08-19T04:18:51;17.40;99.90
55369;DHT22;41247;49.736;8.752;2022-08-19T04:22:32;17.50;99.90
55369;DHT22;41247;49.736;8.752;2022-08-19T04:26:14;17.60;99.90
55369;DHT22;41247;49.736;8.752;2022-08-19T04:29:56;17.70;99.90
55369;DHT22;41247;49.736;8.752;2022-08-19T04:33:37;17.70;99.90
55369;DHT22;41247;49.736;8.752;2022-08-19T04:37:17;17.80;99.90
55369;DHT22;41247;49.736;8.752;2022-08-19T04:40:58;17.80;99.90
55369;DHT22;41247;49.736;8.752;2022-08-19T04:44:38;17.90;99.90
55369;DHT22;41247;49.736;8.752;2022-08-19T04:48:19;17.90;99.90
55369;DHT22;41247;49.736;8.752;2022-08-19T04:52:00;17.90;99.90
55369;DHT22;41247;49.736;8.752;2022-08-19T04:55:42;18.00;99.90
55369;DHT22;41247;49.736;8.752;2022-08-19T04:59:22;18.00;99.90
55369;DHT22;41247;49.736;8.752;2022-08-19T05:03:03;18.10;99.90
55369;DHT22;41247;49.736;8.752;2022-08-19T05:06:44;18.10;99.90
55369;DHT22;41247;49.736;8.752;2022-08-19T05:10:26;18.20;99.90
55369;DHT22;41247;49.736;8.752;2022-08-19T05:14:07;18.20;99.90
55369;DHT22;41247;49.736;8.752;2022-08-19T05:17:48;18.30;99.90
55369;DHT22;41247;49.736;8.752;2022-08-19T05:21:30;18.30;99.90
55369;DHT22;41247;49.736;8.752;2022-08-19T05:25:14;18.30;99.90
55369;DHT22;41247;49.736;8.752;2022-08-19T05:28:56;18.30;99.90
55369;DHT22;41247;49.736;8.752;2022-08-19T05:32:38;18.40;99.90
55369;DHT22;41247;49.736;8.752;2022-08-19T05:36:19;18.50;99.90
55369;DHT22;41247;49.736;8.752;2022-08-19T05:39:59;18.50;99.90
55369;DHT22;41247;49.736;8.752;2022-08-19T05:43:40;18.60;99.90
55369;DHT22;41247;49.736;8.752;2022-08-19T05:47:21;18.70;99.90
55369;DHT22;41247;49.736;8.752;2022-08-19T05:51:05;18.70;99.90
55369;DHT22;41247;49.736;8.752;2022-08-19T05:54:46;18.80;99.90
55369;DHT22;41247;49.736;8.752;2022-08-19T05:58:27;18.90;99.90
55369;DHT22;41247;49.736;8.752;2022-08-19T06:02:08;18.90;99.90
55369;DHT22;41247;49.736;8.752;2022-08-19T06:05:49;19.00;99.90
55369;DHT22;41247;49.736;8.752;2022-08-19T06:09:30;19.00;99.90
55369;DHT22;41247;49.736;8.752;2022-08-19T06:13:10;19.10;99.90
55369;DHT22;41247;49.736;8.752;2022-08-19T06:16:51;19.20;99.90
55369;DHT22;41247;49.736;8.752;2022-08-19T06:20:32;19.30;99.90
55369;DHT22;41247;49.736;8.752;2022-08-19T06:24:14;19.40;99.90
55369;DHT22;41247;49.736;8.752;2022-08-19T06:27:57;19.50;99.90
55369;DHT22;41247;49.736;8.752;2022-08-19T06:31:42;19.50;99.90
55369;DHT22;41247;49.736;8.752;2022-08-19T06:35:23;19.60;99.90
55369;DHT22;41247;49.736;8.752;2022-08-19T06:39:09;19.60;99.90
55369;DHT22;41247;49.736;8.752;2022-08-19T06:43:01;19.70;99.90
55369;DHT22;41247;49.736;8.752;2022-08-19T06:46:42;19.80;99.90
55369;DHT22;41247;49.736;8.752;2022-08-19T06:50:23;19.90;99.90
55369;DHT22;41247;49.736;8.752;2022-08-19T06:54:04;19.90;99.90
55369;DHT22;41247;49.736;8.752;2022-08-19T06:57:45;20.00;99.90
55369;DHT22;41247;49.736;8.752;2022-08-19T07:01:26;20.00;99.90
55369;DHT22;41247;49.736;8.752;2022-08-19T07:05:07;20.10;99.90
55369;DHT22;41247;49.736;8.752;2022-08-19T07:08:48;20.20;99.90
55369;DHT22;41247;49.736;8.752;2022-08-19T07:12:30;20.30;99.90
55369;DHT22;41247;49.736;8.752;2022-08-19T07:16:14;20.60;99.90
55369;DHT22;41247;49.736;8.752;2022-08-19T07:19:56;21.00;99.90
55369;DHT22;41247;49.736;8.752;2022-08-19T07:23:37;21.30;99.90
55369;DHT22;41247;49.736;8.752;2022-08-19T07:27:18;21.50;99.90
55369;DHT22;41247;49.736;8.752;2022-08-19T07:30:59;21.60;99.90
55369;DHT22;41247;49.736;8.752;2022-08-19T07:34:39;21.60;99.90
55369;DHT22;41247;49.736;8.752;2022-08-19T07:38:20;21.70;99.90
55369;DHT22;41247;49.736;8.752;2022-08-19T07:42:04;21.70;99.90
55369;DHT22;41247;49.736;8.752;2022-08-19T07:45:46;21.60;99.90
55369;DHT22;41247;49.736;8.752;2022-08-19T07:49:27;21.70;99.90
55369;DHT22;41247;49.736;8.752;2022-08-19T07:53:08;21.70;99.90
55369;DHT22;41247;49.736;8.752;2022-08-19T07:56:49;21.90;99.90
55369;DHT22;41247;49.736;8.752;2022-08-19T08:00:30;21.90;99.90
55369;DHT22;41247;49.736;8.752;2022-08-19T08:04:11;22.00;99.90
55369;DHT22;41247;49.736;8.752;2022-08-19T08:07:52;22.00;99.90
55369;DHT22;41247;49.736;8.752;2022-08-19T08:11:33;22.20;99.90
55369;DHT22;41247;49.736;8.752;2022-08-19T08:15:15;22.40;99.90
55369;DHT22;41247;49.736;8.752;2022-08-19T08:18:57;22.80;99.90
55369;DHT22;41247;49.736;8.752;2022-08-19T08:22:43;23.20;99.90
55369;DHT22;41247;49.736;8.752;2022-08-19T08:26:25;23.60;99.90
55369;DHT22;41247;49.736;8.752;2022-08-19T08:30:12;23.70;99.90
55369;DHT22;41247;49.736;8.752;2022-08-19T08:33:55;23.70;99.90
55369;DHT22;41247;49.736;8.752;2022-08-19T08:37:36;23.70;99.90
55369;DHT22;41247;49.736;8.752;2022-08-19T08:45:17;24.20;99.90
55369;DHT22;41247;49.736;8.752;2022-08-19T08:49:18;24.70;99.90
55369;DHT22;41247;49.736;8.752;2022-08-19T08:53:06;24.70;99.90
55369;DHT22;41247;49.736;8.752;2022-08-19T08:56:49;24.60;99.90
55369;DHT22;41247;49.736;8.752;2022-08-19T09:00:32;24.70;99.90
55369;DHT22;41247;49.736;8.752;2022-08-19T09:04:15;24.60;99.90
55369;DHT22;41247;49.736;8.752;2022-08-19T09:08:07;24.40;99.90
55369;DHT22;41247;49.736;8.752;2022-08-19T09:16:21;24.90;99.90
55369;DHT22;41247;49.736;8.752;2022-08-19T09:23:49;25.30;99.90
55369;DHT22;41247;49.736;8.752;2022-08-19T09:27:30;25.60;99.90
55369;DHT22;41247;49.736;8.752;2022-08-19T09:31:18;25.60;99.90
55369;DHT22;41247;49.736;8.752;2022-08-19T09:35:00;25.50;99.90
55369;DHT22;41247;49.736;8.752;2022-08-19T09:38:41;25.50;99.90
55369;DHT22;41247;49.736;8.752;2022-08-19T09:42:22;25.80;99.90
55369;DHT22;41247;49.736;8.752;2022-08-19T09:46:04;26.40;99.90
55369;DHT22;41247;49.736;8.752;2022-08-19T09:49:45;26.50;99.90
55369;DHT22;41247;49.736;8.752;2022-08-19T09:53:26;26.50;99.90
55369;DHT22;41247;49.736;8.752;2022-08-19T09:57:07;26.90;99.90
55369;DHT22;41247;49.736;8.752;2022-08-19T10:00:48;27.00;99.90
55369;DHT22;41247;49.736;8.752;2022-08-19T10:04:28;26.80;99.90
55369;DHT22;41247;49.736;8.752;2022-08-19T10:08:10;27.10;99.90
55369;DHT22;41247;49.736;8.752;2022-08-19T10:11:50;27.30;99.90
55369;DHT22;41247;49.736;8.752;2022-08-19T10:15:31;27.00;99.90
55369;DHT22;41247;49.736;8.752;2022-08-19T10:19:11;26.80;99.90
55369;DHT22;41247;49.736;8.752;2022-08-19T10:22:52;26.50;99.90
55369;DHT22;41247;49.736;8.752;2022-08-19T10:26:37;26.30;99.90
55369;DHT22;41247;49.736;8.752;2022-08-19T10:30:19;26.10;99.90
55369;DHT22;41247;49.736;8.752;2022-08-19T10:34:01;26.10;99.90
55369;DHT22;41247;49.736;8.752;2022-08-19T10:37:42;26.30;99.90
55369;DHT22;41247;49.736;8.752;2022-08-19T10:41:25;26.50;99.90
55369;DHT22;41247;49.736;8.752;2022-08-19T10:45:08;26.70;99.90
55369;DHT22;41247;49.736;8.752;2022-08-19T10:48:49;26.70;99.90
55369;DHT22;41247;49.736;8.752;2022-08-19T10:52:31;27.00;99.90
55369;DHT22;41247;49.736;8.752;2022-08-19T10:56:12;27.10;99.90
55369;DHT22;41247;49.736;8.752;2022-08-19T10:59:53;27.10;99.90
55369;DHT22;41247;49.736;8.752;2022-08-19T11:03:33;27.20;99.90
55369;DHT22;41247;49.736;8.752;2022-08-19T11:07:14;27.30;99.90
55369;DHT22;41247;49.736;8.752;2022-08-19T11:10:55;27.50;99.90
55369;DHT22;41247;49.736;8.752;2022-08-19T11:14:36;27.20;99.90
55369;DHT22;41247;49.736;8.752;2022-08-19T11:18:16;27.20;99.90
55369;DHT22;41247;49.736;8.752;2022-08-19T11:21:57;27.60;99.90
55369;DHT22;41247;49.736;8.752;2022-08-19T11:25:39;28.00;99.90
55369;DHT22;41247;49.736;8.752;2022-08-19T11:29:21;28.20;99.90
55369;DHT22;41247;49.736;8.752;2022-08-19T11:33:01;27.90;99.90
55369;DHT22;41247;49.736;8.752;2022-08-19T11:36:43;28.20;99.90
55369;DHT22;41247;49.736;8.752;2022-08-19T11:40:25;28.60;99.90
55369;DHT22;41247;49.736;8.752;2022-08-19T11:44:06;28.00;99.90
55369;DHT22;41247;49.736;8.752;2022-08-19T11:47:47;27.20;99.90
55369;DHT22;41247;49.736;8.752;2022-08-19T11:51:28;26.80;99.90
55369;DHT22;41247;49.736;8.752;2022-08-19T11:55:10;27.20;99.90
55369;DHT22;41247;49.736;8.752;2022-08-19T11:58:52;28.00;99.90
55369;DHT22;41247;49.736;8.752;2022-08-19T12:02:33;28.60;99.90
55369;DHT22;41247;49.736;8.752;2022-08-19T12:06:17;28.60;99.90
55369;DHT22;41247;49.736;8.752;2022-08-19T12:10:00;28.10;99.90
55369;DHT22;41247;49.736;8.752;2022-08-19T12:13:42;28.40;99.90
55369;DHT22;41247;49.736;8.752;2022-08-19T12:17:24;28.90;99.90
55369;DHT22;41247;49.736;8.752;2022-08-19T12:21:08;29.40;99.90
55369;DHT22;41247;49.736;8.752;2022-08-19T12:24:48;29.50;99.90
55369;DHT22;41247;49.736;8.752;2022-08-19T12:28:30;29.20;99.90
55369;DHT22;41247;49.736;8.752;2022-08-19T12:32:10;28.80;99.90
55369;DHT22;41247;49.736;8.752;2022-08-19T12:35:51;28.30;99.90
55369;DHT22;41247;49.736;8.752;2022-08-19T12:39:38;28.20;99.90
55369;DHT22;41247;49.736;8.752;2022-08-19T12:43:20;28.60;99.90
55369;DHT22;41247;49.736;8.752;2022-08-19T12:47:00;29.00;99.90
55369;DHT22;41247;49.736;8.752;2022-08-19T12:50:43;29.30;99.90
55369;DHT22;41247;49.736;8.752;2022-08-19T12:54:24;30.00;99.90
55369;DHT22;41247;49.736;8.752;2022-08-19T12:58:04;30.60;99.90
55369;DHT22;41247;49.736;8.752;2022-08-19T13:01:45;31.10;99.90
55369;DHT22;41247;49.736;8.752;2022-08-19T13:05:28;31.20;99.90
55369;DHT22;41247;49.736;8.752;2022-08-19T13:09:10;30.80;99.90
55369;DHT22;41247;49.736;8.752;2022-08-19T13:12:52;30.90;99.90
55369;DHT22;41247;49.736;8.752;2022-08-19T13:16:32;30.50;99.90
55369;DHT22;41247;49.736;8.752;2022-08-19T13:20:13;30.00;99.90
55369;DHT22;41247;49.736;8.752;2022-08-19T13:23:54;30.30;99.90
55369;DHT22;41247;49.736;8.752;2022-08-19T13:27:35;30.40;99.90
55369;DHT22;41247;49.736;8.752;2022-08-19T13:31:17;30.70;99.90
55369;DHT22;41247;49.736;8.752;2022-08-19T13:34:59;31.20;99.90
55369;DHT22;41247;49.736;8.752;2022-08-19T13:38:39;31.50;99.90
55369;DHT22;41247;49.736;8.752;2022-08-19T13:42:20;31.60;99.90
55369;DHT22;41247;49.736;8.752;2022-08-19T13:46:09;31.60;99.90
55369;DHT22;41247;49.736;8.752;2022-08-19T13:49:51;31.80;99.90
55369;DHT22;41247;49.736;8.752;2022-08-19T13:53:31;31.40;99.90
55369;DHT22;41247;49.736;8.752;2022-08-19T13:57:13;31.00;99.90
55369;DHT22;41247;49.736;8.752;2022-08-19T14:00:53;30.60;99.90
55369;DHT22;41247;49.736;8.752;2022-08-19T14:04:36;30.30;99.90
55369;DHT22;41247;49.736;8.752;2022-08-19T14:08:18;30.00;99.90
55369;DHT22;41247;49.736;8.752;2022-08-19T14:11:58;30.10;99.90
55369;DHT22;41247;49.736;8.752;2022-08-19T14:15:39;30.60;99.90
55369;DHT22;41247;49.736;8.752;2022-08-19T14:19:26;31.00;99.90
55369;DHT22;41247;49.736;8.752;2022-08-19T14:23:08;31.30;99.90
55369;DHT22;41247;49.736;8.752;2022-08-19T14:26:48;31.50;99.90
55369;DHT22;41247;49.736;8.752;2022-08-19T14:30:33;31.20;99.90
55369;DHT22;41247;49.736;8.752;2022-08-19T14:34:15;30.90;99.90
55369;DHT22;41247;49.736;8.752;2022-08-19T14:37:55;31.10;99.90
55369;DHT22;41247;49.736;8.752;2022-08-19T14:41:36;31.70;99.90
55369;DHT22;41247;49.736;8.752;2022-08-19T14:45:21;32.20;99.90
55369;DHT22;41247;49.736;8.752;2022-08-19T14:49:02;32.50;99.90
55369;DHT22;41247;49.736;8.752;2022-08-19T14:52:42;32.70;99.90
55369;DHT22;41247;49.736;8.752;2022-08-19T14:56:26;32.50;99.90
55369;DHT22;41247;49.736;8.752;2022-08-19T15:00:08;32.10;99.90
55369;DHT22;41247;49.736;8.752;2022-08-19T15:03:50;31.90;99.90
55369;DHT22;41247;49.736;8.752;2022-08-19T15:07:31;32.00;99.90
55369;DHT22;41247;49.736;8.752;2022-08-19T15:11:14;32.00;99.90
55369;DHT22;41247;49.736;8.752;2022-08-19T15:14:57;31.90;99.90
55369;DHT22;41247;49.736;8.752;2022-08-19T15:18:37;32.00;99.90
55369;DHT22;41247;49.736;8.752;2022-08-19T15:22:18;31.90;99.90
55369;DHT22;41247;49.736;8.752;2022-08-19T15:25:58;31.70;99.90
55369;DHT22;41247;49.736;8.752;2022-08-19T15:29:39;31.60;99.90
55369;DHT22;41247;49.736;8.752;2022-08-19T15:33:20;31.40;99.90
55369;DHT22;41247;49.736;8.752;2022-08-19T15:37:01;31.00;99.90
55369;DHT22;41247;49.736;8.752;2022-08-19T15:40:42;30.60;99.90
55369;DHT22;41247;49.736;8.752;2022-08-19T15:44:23;30.40;99.90
55369;DHT22;41247;49.736;8.752;2022-08-19T15:48:03;30.00;99.90
55369;DHT22;41247;49.736;8.752;2022-08-19T15:51:46;29.50;99.90
55369;DHT22;41247;49.736;8.752;2022-08-19T15:55:33;29.10;99.90
55369;DHT22;41247;49.736;8.752;2022-08-19T15:59:15;28.80;99.90
55369;DHT22;41247;49.736;8.752;2022-08-19T16:02:56;28.40;99.90
55369;DHT22;41247;49.736;8.752;2022-08-19T16:06:38;28.30;99.90
55369;DHT22;41247;49.736;8.752;2022-08-19T16:10:20;28.10;99.90
55369;DHT22;41247;49.736;8.752;2022-08-19T16:14:01;27.80;99.90
55369;DHT22;41247;49.736;8.752;2022-08-19T16:17:42;27.60;99.90
55369;DHT22;41247;49.736;8.752;2022-08-19T16:21:25;27.40;99.90
55369;DHT22;41247;49.736;8.752;2022-08-19T16:25:07;27.30;99.90
55369;DHT22;41247;49.736;8.752;2022-08-19T16:28:48;27.20;99.90
55369;DHT22;41247;49.736;8.752;2022-08-19T16:32:30;27.10;99.90
55369;DHT22;41247;49.736;8.752;2022-08-19T16:36:12;27.00;99.90
55369;DHT22;41247;49.736;8.752;2022-08-19T16:39:53;26.90;99.90
55369;DHT22;41247;49.736;8.752;2022-08-19T16:43:33;26.80;99.90
55369;DHT22;41247;49.736;8.752;2022-08-19T16:47:14;26.60;99.90
55369;DHT22;41247;49.736;8.752;2022-08-19T16:50:57;26.50;99.90
55369;DHT22;41247;49.736;8.752;2022-08-19T16:54:38;26.40;99.90
55369;DHT22;41247;49.736;8.752;2022-08-19T16:58:20;26.30;99.90
55369;DHT22;41247;49.736;8.752;2022-08-19T17:02:01;26.30;99.90
55369;DHT22;41247;49.736;8.752;2022-08-19T17:05:43;26.20;99.90
55369;DHT22;41247;49.736;8.752;2022-08-19T17:09:24;26.20;99.90
55369;DHT22;41247;49.736;8.752;2022-08-19T17:13:05;26.10;99.90
55369;DHT22;41247;49.736;8.752;2022-08-19T17:16:46;26.10;99.90
55369;DHT22;41247;49.736;8.752;2022-08-19T17:20:27;26.00;99.90
55369;DHT22;41247;49.736;8.752;2022-08-19T17:24:09;25.90;99.90
55369;DHT22;41247;49.736;8.752;2022-08-19T17:27:49;25.70;99.90
55369;DHT22;41247;49.736;8.752;2022-08-19T17:31:30;25.60;99.90
55369;DHT22;41247;49.736;8.752;2022-08-19T17:35:11;25.50;99.90
55369;DHT22;41247;49.736;8.752;2022-08-19T17:38:52;25.40;99.90
55369;DHT22;41247;49.736;8.752;2022-08-19T17:42:35;25.30;99.90
55369;DHT22;41247;49.736;8.752;2022-08-19T17:46:15;25.20;99.90
55369;DHT22;41247;49.736;8.752;2022-08-19T17:49:56;25.00;99.90
55369;DHT22;41247;49.736;8.752;2022-08-19T17:53:37;24.90;99.90
55369;DHT22;41247;49.736;8.752;2022-08-19T17:57:17;24.70;99.90
55369;DHT22;41247;49.736;8.752;2022-08-19T18:00:58;24.50;99.90
55369;DHT22;41247;49.736;8.752;2022-08-19T18:04:39;24.30;99.90
55369;DHT22;41247;49.736;8.752;2022-08-19T18:08:19;24.20;99.90
55369;DHT22;41247;49.736;8.752;2022-08-19T18:12:01;24.00;99.90
55369;DHT22;41247;49.736;8.752;2022-08-19T18:15:41;23.80;99.90
55369;DHT22;41247;49.736;8.752;2022-08-19T18:19:25;23.60;99.90
55369;DHT22;41247;49.736;8.752;2022-08-19T18:23:06;23.40;99.90
55369;DHT22;41247;49.736;8.752;2022-08-19T18:26:47;23.20;99.90
55369;DHT22;41247;49.736;8.752;2022-08-19T18:30:29;23.00;99.90
55369;DHT22;41247;49.736;8.752;2022-08-19T18:34:09;22.80;99.90
55369;DHT22;41247;49.736;8.752;2022-08-19T18:37:50;22.70;99.90
55369;DHT22;41247;49.736;8.752;2022-08-19T18:41:31;22.50;99.90
55369;DHT22;41247;49.736;8.752;2022-08-19T18:45:12;22.30;99.90
55369;DHT22;41247;49.736;8.752;2022-08-19T18:48:52;22.20;99.90
55369;DHT22;41247;49.736;8.752;2022-08-19T18:52:36;22.00;99.90
55369;DHT22;41247;49.736;8.752;2022-08-19T18:56:18;21.80;99.90
55369;DHT22;41247;49.736;8.752;2022-08-19T18:59:59;21.60;99.90
55369;DHT22;41247;49.736;8.752;2022-08-19T19:03:50;21.50;99.90
55369;DHT22;41247;49.736;8.752;2022-08-19T19:07:33;21.30;99.90
55369;DHT22;41247;49.736;8.752;2022-08-19T19:11:20;21.20;99.90
55369;DHT22;41247;49.736;8.752;2022-08-19T19:15:08;21.00;99.90
55369;DHT22;41247;49.736;8.752;2022-08-19T19:18:48;20.80;99.90
55369;DHT22;41247;49.736;8.752;2022-08-19T19:22:29;20.60;99.90
55369;DHT22;41247;49.736;8.752;2022-08-19T19:26:11;20.50;99.90
55369;DHT22;41247;49.736;8.752;2022-08-19T19:29:52;20.40;99.90
55369;DHT22;41247;49.736;8.752;2022-08-19T19:33:33;20.30;99.90
55369;DHT22;41247;49.736;8.752;2022-08-19T19:37:13;20.20;99.90
55369;DHT22;41247;49.736;8.752;2022-08-19T19:40:54;20.10;99.90
55369;DHT22;41247;49.736;8.752;2022-08-19T19:44:39;20.00;99.90
55369;DHT22;41247;49.736;8.752;2022-08-19T19:48:20;20.00;99.90
55369;DHT22;41247;49.736;8.752;2022-08-19T19:52:00;19.90;99.90
55369;DHT22;41247;49.736;8.752;2022-08-19T19:55:42;19.80;99.90
55369;DHT22;41247;49.736;8.752;2022-08-19T19:59:22;19.70;99.90
55369;DHT22;41247;49.736;8.752;2022-08-19T20:03:03;19.60;99.90
55369;DHT22;41247;49.736;8.752;2022-08-19T20:06:45;19.60;99.90
55369;DHT22;41247;49.736;8.752;2022-08-19T20:10:25;19.50;99.90
55369;DHT22;41247;49.736;8.752;2022-08-19T20:18:03;19.40;99.90
55369;DHT22;41247;49.736;8.752;2022-08-19T20:21:46;19.30;99.90
55369;DHT22;41247;49.736;8.752;2022-08-19T20:25:29;19.30;99.90
55369;DHT22;41247;49.736;8.752;2022-08-19T20:29:10;19.20;99.90
55369;DHT22;41247;49.736;8.752;2022-08-19T20:32:51;19.20;99.90
55369;DHT22;41247;49.736;8.752;2022-08-19T20:36:31;19.20;99.90
55369;DHT22;41247;49.736;8.752;2022-08-19T20:40:13;19.10;99.90
55369;DHT22;41247;49.736;8.752;2022-08-19T20:43:55;19.00;99.90
55369;DHT22;41247;49.736;8.752;2022-08-19T20:47:36;19.00;99.90
55369;DHT22;41247;49.736;8.752;2022-08-19T20:51:17;18.90;99.90
55369;DHT22;41247;49.736;8.752;2022-08-19T20:54:59;18.90;99.90
55369;DHT22;41247;49.736;8.752;2022-08-19T20:58:40;18.90;99.90
55369;DHT22;41247;49.736;8.752;2022-08-19T21:02:20;18.80;99.90
55369;DHT22;41247;49.736;8.752;2022-08-19T21:06:01;18.70;99.90
55369;DHT22;41247;49.736;8.752;2022-08-19T21:09:42;18.70;99.90
55369;DHT22;41247;49.736;8.752;2022-08-19T21:13:24;18.60;99.90
55369;DHT22;41247;49.736;8.752;2022-08-19T21:17:05;18.50;99.90
55369;DHT22;41247;49.736;8.752;2022-08-19T21:20:46;18.40;99.90
55369;DHT22;41247;49.736;8.752;2022-08-19T21:24:27;18.40;99.90
55369;DHT22;41247;49.736;8.752;2022-08-19T21:28:07;18.30;99.90
55369;DHT22;41247;49.736;8.752;2022-08-19T21:31:48;18.30;99.90
55369;DHT22;41247;49.736;8.752;2022-08-19T21:35:29;18.30;99.90
55369;DHT22;41247;49.736;8.752;2022-08-19T21:39:10;18.20;99.90
55369;DHT22;41247;49.736;8.752;2022-08-19T21:42:51;18.10;99.90
55369;DHT22;41247;49.736;8.752;2022-08-19T21:46:31;18.10;99.90
55369;DHT22;41247;49.736;8.752;2022-08-19T21:50:12;18.00;99.90
55369;DHT22;41247;49.736;8.752;2022-08-19T21:53:53;17.90;99.90
55369;DHT22;41247;49.736;8.752;2022-08-19T21:57:33;17.90;99.90
55369;DHT22;41247;49.736;8.752;2022-08-19T22:01:14;17.80;99.90
55369;DHT22;41247;49.736;8.752;2022-08-19T22:04:55;17.80;99.90
55369;DHT22;41247;49.736;8.752;2022-08-19T22:08:36;17.80;99.90
55369;DHT22;41247;49.736;8.752;2022-08-19T22:12:30;17.70;99.90
55369;DHT22;41247;49.736;8.752;2022-08-19T22:16:12;17.70;99.90
55369;DHT22;41247;49.736;8.752;2022-08-19T22:19:54;17.60;99.90
55369;DHT22;41247;49.736;8.752;2022-08-19T22:23:35;17.60;99.90
55369;DHT22;41247;49.736;8.752;2022-08-19T22:27:16;17.50;99.90
55369;DHT22;41247;49.736;8.752;2022-08-19T22:30:57;17.40;99.90
55369;DHT22;41247;49.736;8.752;2022-08-19T22:34:38;17.40;99.90
55369;DHT22;41247;49.736;8.752;2022-08-19T22:38:19;17.30;99.90
55369;DHT22;41247;49.736;8.752;2022-08-19T22:42:00;17.30;99.90
55369;DHT22;41247;49.736;8.752;2022-08-19T22:45:42;17.20;99.90
55369;DHT22;41247;49.736;8.752;2022-08-19T22:49:23;17.20;99.90
55369;DHT22;41247;49.736;8.752;2022-08-19T22:53:05;17.10;99.90
55369;DHT22;41247;49.736;8.752;2022-08-19T22:56:46;17.10;99.90
55369;DHT22;41247;49.736;8.752;2022-08-19T23:00:28;17.00;99.90
55369;DHT22;41247;49.736;8.752;2022-08-19T23:04:08;17.00;99.90
55369;DHT22;41247;49.736;8.752;2022-08-19T23:07:50;17.00;99.90
55369;DHT22;41247;49.736;8.752;2022-08-19T23:11:32;17.00;99.90
55369;DHT22;41247;49.736;8.752;2022-08-19T23:15:17;17.00;99.90
55369;DHT22;41247;49.736;8.752;2022-08-19T23:18:59;17.00;99.90
55369;DHT22;41247;49.736;8.752;2022-08-19T23:22:42;17.00;99.90
55369;DHT22;41247;49.736;8.752;2022-08-19T23:26:24;16.90;99.90
55369;DHT22;41247;49.736;8.752;2022-08-19T23:30:05;16.90;99.90
55369;DHT22;41247;49.736;8.752;2022-08-19T23:33:47;16.90;99.90
55369;DHT22;41247;49.736;8.752;2022-08-19T23:37:33;16.80;99.90